createdAt,value
2023-02-24T00:53:20.292Z,67.24
2023-02-24T00:58:43.625Z,67.18
2023-02-24T01:04:11.167Z,67.10
2023-02-24T01:09:33.605Z,67.25
2023-02-24T01:14:55.538Z,67.18
2023-02-24T01:20:19.021Z,67.42
2023-02-24T01:25:47.078Z,67.43
2023-02-24T01:31:09.352Z,67.79
2023-02-24T01:36:31.404Z,67.49
2023-02-24T01:41:56.025Z,67.53
2023-02-24T01:47:22.519Z,67.68
2023-02-24T01:52:46.708Z,67.84
2023-02-24T01:58:15.905Z,67.69
2023-02-24T02:03:41.644Z,67.56
2023-02-24T02:09:03.537Z,67.68
2023-02-24T02:14:27.268Z,67.70
2023-02-24T02:20:27.147Z,67.59
2023-02-24T02:26:00.803Z,67.80
2023-02-24T02:31:29.716Z,67.91
2023-02-24T02:37:12.299Z,68.01
2023-02-24T02:42:41.900Z,68.28
2023-02-24T02:48:07.861Z,68.61
2023-02-24T02:54:10.384Z,68.63
2023-02-24T02:59:35.869Z,68.77
2023-02-24T03:05:00.170Z,69.11
2023-02-24T03:10:29.042Z,69.22
2023-02-24T03:16:01.768Z,69.63
2023-02-24T03:21:33.735Z,69.92
2023-02-24T03:27:21.255Z,70.59
2023-02-24T03:32:51.587Z,71.43
2023-02-24T03:38:14.398Z,72.08
2023-02-24T03:43:39.465Z,72.56
2023-02-24T03:49:10.315Z,73.00
2023-02-24T03:54:52.317Z,73.29
2023-02-24T04:00:37.316Z,73.59
2023-02-24T04:06:14.489Z,74.05
2023-02-24T04:11:46.769Z,74.47
2023-02-24T04:17:33.674Z,74.69
2023-02-24T04:23:10.827Z,74.91
2023-02-24T04:28:35.802Z,75.13
2023-02-24T04:34:00.436Z,75.89
2023-02-24T04:39:31.093Z,75.82
2023-02-24T04:44:54.495Z,76.51
2023-02-24T04:50:23.263Z,76.72
2023-02-24T04:55:49.175Z,77.08
2023-02-24T05:01:11.780Z,77.61
2023-02-24T05:06:34.095Z,77.59
2023-02-24T05:11:57.324Z,77.93
2023-02-24T05:17:20.357Z,78.07
2023-02-24T05:22:42.389Z,78.05
2023-02-24T05:28:06.647Z,78.18
2023-02-24T05:33:29.396Z,77.95
2023-02-24T05:38:58.021Z,77.76
2023-02-24T05:44:23.758Z,77.91
2023-02-24T05:49:48.111Z,77.59
2023-02-24T05:55:14.170Z,77.79
2023-02-24T06:00:39.382Z,77.49
2023-02-24T06:06:09.180Z,77.49
2023-02-24T06:11:30.830Z,77.10
2023-02-24T06:16:53.290Z,77.28
2023-02-24T06:22:19.191Z,77.14
2023-02-24T06:27:41.069Z,77.14
2023-02-24T06:33:03.292Z,77.47
2023-02-24T06:38:26.125Z,77.53
2023-02-24T06:43:48.759Z,77.23
2023-02-24T06:49:10.494Z,77.48
2023-02-24T06:54:36.273Z,78.04
2023-02-24T06:59:58.260Z,78.37
2023-02-24T07:05:24.343Z,78.56
2023-02-24T07:10:52.781Z,78.57
2023-02-24T07:16:16.981Z,78.64
2023-02-24T07:21:39.935Z,79.06
2023-02-24T07:27:04.682Z,79.22
2023-02-24T07:32:28.046Z,79.16
2023-02-24T07:37:50.539Z,79.51
2023-02-24T07:43:12.866Z,79.60
2023-02-24T07:48:38.807Z,79.57
2023-02-24T07:54:03.651Z,79.62
2023-02-24T07:59:31.089Z,79.63
2023-02-24T08:04:52.922Z,79.40
2023-02-24T08:10:24.554Z,79.54
2023-02-24T08:15:56.433Z,79.37
2023-02-24T08:21:21.927Z,79.40
2023-02-24T08:27:03.910Z,79.62
2023-02-24T08:32:38.067Z,79.58
2023-02-24T08:38:10.522Z,79.67
2023-02-24T08:43:38.984Z,79.75
2023-02-24T08:49:10.789Z,79.75
2023-02-24T08:54:33.681Z,80.02
2023-02-24T08:59:58.533Z,79.74
2023-02-24T09:05:20.850Z,80.10
2023-02-24T09:10:46.390Z,80.35
2023-02-24T09:16:16.681Z,80.08
2023-02-24T09:21:48.113Z,79.78
2023-02-24T09:27:09.941Z,80.06
2023-02-24T09:32:34.947Z,79.94
2023-02-24T09:38:00.415Z,80.02
2023-02-24T09:43:24.699Z,79.90
2023-02-24T09:48:56.465Z,79.85
2023-02-24T09:54:24.642Z,79.93
2023-02-24T10:00:23.755Z,80.36
2023-02-24T10:05:59.067Z,80.19
2023-02-24T10:11:35.599Z,80.13
2023-02-24T10:17:16.613Z,79.92
2023-02-24T10:22:54.945Z,79.90
2023-02-24T10:28:23.829Z,79.48
2023-02-24T10:33:46.762Z,79.38
2023-02-24T10:39:20.552Z,79.29
2023-02-24T10:45:01.487Z,79.38
2023-02-24T10:50:30.401Z,79.14
2023-02-24T10:56:15.278Z,78.59
2023-02-24T11:01:41.126Z,78.09
2023-02-24T11:07:10.664Z,77.67
2023-02-24T11:12:55.637Z,77.03
2023-02-24T11:18:25.134Z,76.83
2023-02-24T11:23:52.419Z,77.31
2023-02-24T11:29:55.794Z,76.83
2023-02-24T11:35:48.514Z,76.49
2023-02-24T11:41:27.518Z,76.13
2023-02-24T11:46:50.738Z,76.29
2023-02-24T11:52:28.676Z,75.93
2023-02-24T11:57:54.635Z,75.72
2023-02-24T12:03:25.830Z,74.98
2023-02-24T12:08:52.764Z,74.66
2023-02-24T12:14:27.582Z,74.75
2023-02-24T12:19:57.623Z,74.65
2023-02-24T12:25:28.333Z,74.91
2023-02-24T12:31:08.929Z,74.74
2023-02-24T12:37:08.623Z,74.92
2023-02-24T12:42:38.382Z,74.98
2023-02-24T12:48:17.576Z,74.72
2023-02-24T12:53:45.198Z,74.68
2023-02-24T12:59:10.365Z,74.48
2023-02-24T13:04:51.449Z,74.81
2023-02-24T13:10:41.786Z,75.06
2023-02-24T13:16:04.116Z,75.43
2023-02-24T13:21:26.094Z,75.30
2023-02-24T13:26:48.480Z,75.04
2023-02-24T13:32:31.866Z,75.18
2023-02-24T13:37:54.814Z,74.86
2023-02-24T13:43:29.266Z,74.84
2023-02-24T13:49:00.229Z,74.78
2023-02-24T13:54:41.248Z,74.63
2023-02-24T14:00:20.231Z,75.35
2023-02-24T14:05:47.692Z,75.14
2023-02-24T14:11:13.326Z,75.35
2023-02-24T14:16:42.083Z,76.00
2023-02-24T14:22:03.868Z,76.13
2023-02-24T14:27:26.767Z,75.62
2023-02-24T14:32:49.302Z,75.49
2023-02-24T14:38:38.307Z,75.38
2023-02-24T14:44:19.004Z,75.19
2023-02-24T14:49:41.427Z,75.10
2023-02-24T14:55:08.169Z,75.18
2023-02-24T15:00:39.397Z,74.81
2023-02-24T15:06:07.716Z,74.91
2023-02-24T15:11:32.023Z,74.99
2023-02-24T15:16:57.463Z,75.15
2023-02-24T15:22:21.399Z,75.16
2023-02-24T15:28:00.027Z,75.29
2023-02-24T15:33:24.227Z,75.03
2023-02-24T15:38:55.384Z,75.17
2023-02-24T15:44:31.964Z,74.99
2023-02-24T15:49:53.992Z,74.83
2023-02-24T15:55:17.921Z,74.42
2023-02-24T16:00:40.207Z,74.14
2023-02-24T16:06:02.149Z,74.41
2023-02-24T16:11:30.606Z,73.88
2023-02-24T16:16:52.731Z,74.41
2023-02-24T16:22:15.307Z,74.22
2023-02-24T16:27:37.343Z,74.34
2023-02-24T16:33:00.655Z,74.25
2023-02-24T16:38:26.748Z,74.24
2023-02-24T16:43:54.960Z,74.40
2023-02-24T16:49:19.231Z,73.99
2023-02-24T16:54:41.653Z,74.14
2023-02-24T17:00:05.360Z,74.40
2023-02-24T17:05:28.930Z,74.52
2023-02-24T17:10:51.736Z,74.70
2023-02-24T17:16:13.772Z,74.65
2023-02-24T17:21:40.012Z,74.65
2023-02-24T17:27:04.557Z,74.56
2023-02-24T17:32:26.593Z,74.68
2023-02-24T17:37:48.821Z,75.02
2023-02-24T17:43:11.140Z,74.84
2023-02-24T17:48:35.602Z,75.02
2023-02-24T17:53:57.910Z,74.86
2023-02-24T17:59:19.410Z,74.54
2023-02-24T18:04:41.674Z,74.80
2023-02-24T18:10:04.366Z,74.92
2023-02-24T18:15:26.226Z,74.94
2023-02-24T18:20:48.357Z,74.87
2023-02-24T18:26:11.794Z,74.73
2023-02-24T18:31:34.295Z,74.76
2023-02-24T18:36:57.084Z,74.87
2023-02-24T18:42:18.988Z,74.88
2023-02-24T18:47:41.225Z,74.98
2023-02-24T18:53:02.956Z,74.81
2023-02-24T18:58:24.988Z,75.03
2023-02-24T19:03:48.135Z,74.98
2023-02-24T19:09:13.356Z,74.91
2023-02-24T19:14:36.282Z,74.86
2023-02-24T19:20:00.821Z,74.82
2023-02-24T19:25:22.952Z,74.58
2023-02-24T19:30:45.247Z,74.75
2023-02-24T19:36:08.017Z,74.67
2023-02-24T19:41:30.129Z,74.77
2023-02-24T19:46:52.381Z,74.85
2023-02-24T19:52:14.404Z,75.18
2023-02-24T19:57:36.436Z,74.71
2023-02-24T20:02:58.162Z,74.85
2023-02-24T20:08:19.797Z,74.98
2023-02-24T20:13:41.632Z,75.28
2023-02-24T20:19:04.858Z,75.43
2023-02-24T20:24:28.799Z,75.39
2023-02-24T20:29:53.365Z,75.50
2023-02-24T20:35:15.833Z,75.19
2023-02-24T20:40:38.099Z,75.28
2023-02-24T20:46:00.415Z,75.07
2023-02-24T20:51:25.410Z,75.52
2023-02-24T20:56:48.297Z,75.79
2023-02-24T21:02:11.930Z,76.12
2023-02-24T21:07:33.661Z,76.07
2023-02-24T21:12:56.395Z,75.97
2023-02-24T21:18:20.019Z,75.91
2023-02-24T21:23:43.360Z,75.75
2023-02-24T21:29:06.304Z,76.35
2023-02-24T21:34:28.165Z,76.71
2023-02-24T21:39:50.046Z,76.91
2023-02-24T21:45:14.201Z,77.23
2023-02-24T21:50:36.010Z,77.49
2023-02-24T21:56:19.656Z,77.71
2023-02-24T22:01:43.964Z,77.83
2023-02-24T22:07:05.986Z,77.68
2023-02-24T22:12:29.826Z,77.41
2023-02-24T22:17:52.752Z,77.66
2023-02-24T22:23:23.865Z,77.73
2023-02-24T22:28:47.362Z,77.61
2023-02-24T22:34:13.315Z,77.80
2023-02-24T22:39:34.723Z,77.57
2023-02-24T22:44:56.670Z,77.44
2023-02-24T22:50:18.988Z,77.31
2023-02-24T22:55:47.939Z,77.34
2023-02-24T23:01:11.556Z,77.53
2023-02-24T23:06:37.523Z,77.34
2023-02-24T23:11:59.304Z,77.23
2023-02-24T23:17:21.973Z,77.19
2023-02-24T23:22:43.903Z,77.26
2023-02-24T23:28:06.598Z,76.70
2023-02-24T23:33:28.867Z,76.48
2023-02-24T23:38:53.111Z,76.29
2023-02-24T23:44:14.683Z,75.93
2023-02-24T23:49:47.882Z,76.02
2023-02-24T23:55:14.048Z,75.63
